createdAt,value
2022-08-04T00:00:51.112Z,94
2022-08-04T00:02:01.237Z,94.1
2022-08-04T00:03:11.362Z,93.9
2022-08-04T00:04:21.468Z,94.1
2022-08-04T00:05:31.592Z,93.9
2022-08-04T00:06:41.702Z,94
2022-08-04T00:07:51.824Z,93.8
2022-08-04T00:09:01.948Z,93.7
2022-08-04T00:10:12.056Z,94.1
2022-08-04T00:11:22.180Z,93.5
2022-08-04T00:12:32.307Z,93.3
2022-08-04T00:13:42.420Z,93.9
2022-08-04T00:14:52.540Z,93.6
2022-08-04T00:16:01.659Z,93.6
2022-08-04T00:17:11.787Z,94
2022-08-04T00:18:21.908Z,93.9
2022-08-04T00:20:42.131Z,94
2022-08-04T00:21:52.261Z,94.1
2022-08-04T00:23:02.365Z,93.9
2022-08-04T00:24:12.492Z,93.8
2022-08-04T00:25:22.601Z,93.8
2022-08-04T00:26:32.727Z,93.5
2022-08-04T00:27:42.850Z,93.6
2022-08-04T00:28:52.971Z,93.8
2022-08-04T00:30:03.074Z,93.8
2022-08-04T00:31:12.211Z,93.7
2022-08-04T00:32:22.339Z,93.9
2022-08-04T00:33:32.443Z,94.9
2022-08-04T00:34:42.567Z,94.5
2022-08-04T00:35:52.688Z,94.7
2022-08-04T00:37:03.080Z,94.8
2022-08-04T00:38:12.930Z,94.6
2022-08-04T00:40:33.161Z,94.1
2022-08-04T00:41:43.271Z,94.5
2022-08-04T00:42:53.397Z,94.4
2022-08-04T00:44:03.502Z,94.3
2022-08-04T00:45:13.632Z,94.6
2022-08-04T00:46:22.764Z,94.4
2022-08-04T00:47:32.000Z,94.3
2022-08-04T00:48:42.996Z,94.8
2022-08-04T00:49:53.389Z,94.3
2022-08-04T00:51:03.244Z,94.5
2022-08-04T00:52:13.360Z,94.3
2022-08-04T00:54:33.597Z,94.5
2022-08-04T00:55:43.697Z,94.3
2022-08-04T00:56:53.824Z,94.5
2022-08-04T00:58:03.935Z,94.9
2022-08-04T00:59:14.056Z,95.1
2022-08-04T01:00:24.182Z,95
2022-08-04T01:01:33.585Z,94.9
2022-08-04T01:02:43.424Z,94.9
2022-08-04T01:03:53.549Z,94.9
2022-08-04T01:05:03.672Z,95.3
2022-08-04T01:06:13.776Z,94.6
2022-08-04T01:07:23.894Z,95
2022-08-04T01:08:34.292Z,95.2
2022-08-04T01:09:44.128Z,95.2
2022-08-04T01:10:54.533Z,95.5
2022-08-04T01:12:04.381Z,95.3
2022-08-04T01:13:14.496Z,95.1
2022-08-04T01:14:24.612Z,95
2022-08-04T01:15:34.721Z,95
2022-08-04T01:16:43.859Z,95
2022-08-04T01:17:53.983Z,95
2022-08-04T01:19:04.102Z,95.1
2022-08-04T01:20:14.208Z,95.5
2022-08-04T01:22:34.439Z,95.2
2022-08-04T01:23:44.566Z,95.1
2022-08-04T01:24:54.954Z,95.2
2022-08-04T01:26:04.801Z,94.9
2022-08-04T01:27:14.909Z,95.2
2022-08-04T01:28:25.030Z,95.2
2022-08-04T01:29:35.430Z,95.2
2022-08-04T01:30:45.545Z,95.6
2022-08-04T01:31:54.408Z,95.3
2022-08-04T01:33:04.535Z,94.8
2022-08-04T01:34:14.636Z,94.5
2022-08-04T01:36:34.884Z,95.2
2022-08-04T01:37:45.009Z,95.1
2022-08-04T01:38:55.125Z,95.5
2022-08-04T01:40:05.227Z,95.5
2022-08-04T01:41:15.616Z,95.2
2022-08-04T01:42:25.480Z,95.1
2022-08-04T01:43:35.595Z,95.6
2022-08-04T01:44:45.706Z,95.2
2022-08-04T01:45:55.828Z,95.4
2022-08-04T01:47:04.966Z,95.2
2022-08-04T01:48:15.068Z,94.8
2022-08-04T01:49:25.197Z,95.4
2022-08-04T01:50:35.323Z,95.4
2022-08-04T01:51:45.427Z,95.1
2022-08-04T01:52:55.548Z,95.1
2022-08-04T01:54:05.670Z,95.6
2022-08-04T01:55:16.049Z,95.7
2022-08-04T01:56:25.895Z,95.4
2022-08-04T01:57:36.289Z,95.5
2022-08-04T01:58:46.143Z,95.6
2022-08-04T01:59:56.251Z,95.8
2022-08-04T02:01:06.378Z,95.4
2022-08-04T02:02:15.512Z,95.2
2022-08-04T02:03:25.617Z,95.5
2022-08-04T02:04:35.742Z,95.9
2022-08-04T02:05:45.854Z,96
2022-08-04T02:06:55.977Z,96.1
2022-08-04T02:08:06.098Z,96.3
2022-08-04T02:09:16.205Z,96.2
2022-08-04T02:10:26.329Z,96
2022-08-04T02:11:36.449Z,95.7
2022-08-04T02:12:46.829Z,95.6
2022-08-04T02:13:56.689Z,95.9
2022-08-04T02:15:06.795Z,96.3
2022-08-04T02:16:17.185Z,96.6
2022-08-04T02:17:26.046Z,96.5
2022-08-04T02:18:36.166Z,96.6
2022-08-04T02:19:46.287Z,96.9
2022-08-04T02:20:56.404Z,96.9
2022-08-04T02:22:06.786Z,96.7
2022-08-04T02:23:16.649Z,96.7
2022-08-04T02:25:36.890Z,96
2022-08-04T02:26:46.998Z,95.6
2022-08-04T02:27:57.379Z,96.3
2022-08-04T02:29:07.243Z,96
2022-08-04T02:30:17.354Z,96
2022-08-04T02:31:27.461Z,96
2022-08-04T02:32:36.603Z,96
2022-08-04T02:33:46.982Z,96.2
2022-08-04T02:34:56.831Z,96.7
2022-08-04T02:36:06.957Z,96.4
2022-08-04T02:37:17.076Z,96.5
2022-08-04T02:38:27.194Z,96.5
2022-08-04T02:39:37.317Z,96.6
2022-08-04T02:40:47.419Z,96.7
2022-08-04T02:41:57.537Z,96.7
2022-08-04T02:43:07.662Z,96.9
2022-08-04T02:44:18.035Z,96.9
2022-08-04T02:45:27.897Z,96.3
2022-08-04T02:46:38.293Z,96
2022-08-04T02:47:47.154Z,96.2
2022-08-04T02:50:07.386Z,96.2
2022-08-04T02:51:17.775Z,95.9
2022-08-04T02:52:27.615Z,96.2
2022-08-04T02:53:38.005Z,96.3
2022-08-04T02:54:46.884Z,96.2
2022-08-04T02:55:57.264Z,95.9
2022-08-04T02:57:07.115Z,96.1
2022-08-04T02:58:17.223Z,96.3
2022-08-04T02:59:27.346Z,96.5
2022-08-04T03:00:37.729Z,96.6
2022-08-04T03:01:47.575Z,96.8
2022-08-04T03:02:57.968Z,96.7
2022-08-04T03:04:07.818Z,96.7
2022-08-04T03:05:18.200Z,96.6
2022-08-04T03:07:38.178Z,95.6
2022-08-04T03:08:48.284Z,95.9
2022-08-04T03:09:57.428Z,96.8
2022-08-04T03:11:07.535Z,96.4
2022-08-04T03:12:17.660Z,96.4
2022-08-04T03:13:27.776Z,96.6
2022-08-04T03:14:37.898Z,96.6
2022-08-04T03:15:48.021Z,96
2022-08-04T03:16:58.127Z,96.2
2022-08-04T03:18:08.238Z,96
2022-08-04T03:19:18.374Z,96.1
2022-08-04T03:21:38.868Z,96.1
2022-08-04T03:22:48.716Z,95.5
2022-08-04T03:23:58.842Z,95.8
2022-08-04T03:25:07.975Z,96.1
2022-08-04T03:26:18.079Z,96.4
2022-08-04T03:27:28.200Z,96.4
2022-08-04T03:28:38.314Z,96.3
2022-08-04T03:29:48.447Z,96
2022-08-04T03:30:58.558Z,96.1
2022-08-04T03:32:08.945Z,96.5
2022-08-04T03:33:18.800Z,96.6
2022-08-04T03:35:39.032Z,96.6
2022-08-04T03:36:49.140Z,96.7
2022-08-04T03:37:59.258Z,96.6
2022-08-04T03:39:09.387Z,96.7
2022-08-04T03:40:18.520Z,96.5
2022-08-04T03:42:38.744Z,95.9
2022-08-04T03:43:47.906Z,96.1
2022-08-04T03:44:57.027Z,96.4
2022-08-04T03:46:07.411Z,96.4
2022-08-04T03:47:17.274Z,96.5
2022-08-04T03:48:27.392Z,96.9
2022-08-04T03:49:37.511Z,97
2022-08-04T03:50:47.621Z,96.8
2022-08-04T03:51:57.730Z,96.8
2022-08-04T03:53:07.854Z,96.6
2022-08-04T03:54:18.244Z,96.3
2022-08-04T03:55:28.083Z,96.7
2022-08-04T03:56:37.236Z,96.5
2022-08-04T03:57:46.629Z,96.8
2022-08-04T03:58:56.497Z,96.7
2022-08-04T04:00:06.598Z,96.8
2022-08-04T04:01:16.716Z,96.8
2022-08-04T04:02:26.834Z,96.7
2022-08-04T04:03:36.957Z,96.8
2022-08-04T04:04:47.078Z,96.7
2022-08-04T04:05:57.199Z,96.5
2022-08-04T04:07:07.572Z,96.5
2022-08-04T04:08:17.422Z,96.5
2022-08-04T04:09:27.546Z,96.4
2022-08-04T04:10:37.674Z,95.9
2022-08-04T04:11:47.777Z,96.1
2022-08-04T04:12:56.916Z,96.2
2022-08-04T04:14:07.000Z,96.6
2022-08-04T04:15:17.162Z,96.6
2022-08-04T04:16:27.273Z,96.3
2022-08-04T04:17:37.383Z,96.1
2022-08-04T04:18:47.510Z,96
2022-08-04T04:19:57.620Z,95.6
2022-08-04T04:21:07.740Z,95.5
2022-08-04T04:22:17.869Z,95.5
2022-08-04T04:23:27.986Z,95.8
2022-08-04T04:24:38.095Z,95.6
2022-08-04T04:25:48.220Z,95.3
2022-08-04T04:26:58.322Z,95.4
2022-08-04T04:28:07.460Z,95.8
2022-08-04T04:29:17.588Z,95.5
2022-08-04T04:30:27.695Z,95.3
2022-08-04T04:31:37.822Z,95.1
2022-08-04T04:32:48.196Z,95.1
2022-08-04T04:35:08.174Z,94.6
2022-08-04T04:36:18.295Z,94.8
2022-08-04T04:38:38.523Z,94.6
2022-08-04T04:39:48.648Z,94.5
2022-08-04T04:40:58.757Z,94.8
2022-08-04T04:42:08.880Z,94.6
2022-08-04T04:43:18.272Z,94.7
2022-08-04T04:44:28.126Z,94.5
2022-08-04T04:45:38.241Z,94.5
2022-08-04T04:47:58.481Z,94.3
2022-08-04T04:50:17.737Z,94.1
2022-08-04T04:51:26.897Z,94.2
2022-08-04T04:52:36.022Z,94.8
2022-08-04T04:53:46.145Z,94.2
2022-08-04T04:54:56.261Z,93.8
2022-08-04T04:56:06.386Z,93.7
2022-08-04T04:57:16.492Z,93.8
2022-08-04T04:58:26.616Z,94
2022-08-04T04:59:36.727Z,93.1
2022-08-04T05:00:46.850Z,92.9
2022-08-04T05:01:56.962Z,93
2022-08-04T05:03:07.090Z,92.5
2022-08-04T05:04:16.221Z,92.5
2022-08-04T05:05:25.357Z,92.6
2022-08-04T05:06:35.485Z,90.6
2022-08-04T05:07:45.606Z,88.1
2022-08-04T05:08:55.724Z,87.9
2022-08-04T05:10:05.830Z,85.6
2022-08-04T05:11:15.954Z,84.2
2022-08-04T05:13:36.179Z,82.3
2022-08-04T05:14:46.301Z,81.8
2022-08-04T05:15:56.418Z,81.4
2022-08-04T05:17:06.532Z,80.9
2022-08-04T05:18:16.658Z,80.8
2022-08-04T05:19:26.786Z,81.7
2022-08-04T05:20:35.908Z,80.8
2022-08-04T05:21:46.036Z,81.4
2022-08-04T05:22:56.156Z,80
2022-08-04T05:24:06.260Z,78.2
2022-08-04T05:25:16.374Z,78.3
2022-08-04T05:26:26.505Z,77.6
2022-08-04T05:27:36.876Z,76.7
2022-08-04T05:28:46.729Z,76.2
2022-08-04T05:29:56.846Z,76
2022-08-04T05:31:06.968Z,75.5
2022-08-04T05:32:17.099Z,75.8
2022-08-04T05:33:27.207Z,74.5
2022-08-04T05:34:37.330Z,74.5
2022-08-04T05:35:46.459Z,74.4
2022-08-04T05:36:56.582Z,73.9
2022-08-04T05:38:06.697Z,73.8
2022-08-04T05:39:16.818Z,75.4
2022-08-04T05:40:26.924Z,74
2022-08-04T05:41:37.053Z,74.5
2022-08-04T05:42:47.162Z,74.4
2022-08-04T05:43:57.285Z,73.4
2022-08-04T05:45:07.406Z,72.8
2022-08-04T05:46:17.512Z,72.5
2022-08-04T05:48:37.755Z,72.3
2022-08-04T05:49:47.881Z,71.4
2022-08-04T05:50:57.273Z,71
2022-08-04T05:52:07.121Z,69.7
2022-08-04T05:53:17.248Z,70.5
2022-08-04T05:54:27.364Z,70.3
2022-08-04T05:55:37.488Z,71.7
2022-08-04T05:56:47.593Z,70.9
2022-08-04T05:57:57.712Z,69.1
2022-08-04T05:59:07.832Z,72.3
2022-08-04T06:00:17.953Z,71.2
2022-08-04T06:02:38.180Z,71.7
2022-08-04T06:03:48.306Z,71.1
2022-08-04T06:04:58.418Z,71.2
2022-08-04T06:06:07.545Z,69.3
2022-08-04T06:07:17.671Z,69.3
2022-08-04T06:09:38.163Z,68.5
2022-08-04T06:10:47.048Z,68.5
2022-08-04T06:11:56.189Z,68.7
2022-08-04T06:13:06.558Z,68.2
2022-08-04T06:14:16.681Z,69
2022-08-04T06:15:26.536Z,67.9
2022-08-04T06:16:36.916Z,68.1
2022-08-04T06:17:46.771Z,68.2
2022-08-04T06:18:56.897Z,68
2022-08-04T06:20:07.002Z,67.3
2022-08-04T06:21:17.386Z,67.4
2022-08-04T06:22:27.235Z,67.3
2022-08-04T06:23:36.390Z,66.8
2022-08-04T06:24:45.511Z,67.5
2022-08-04T06:25:55.629Z,67.4
2022-08-04T06:27:05.746Z,66.4
2022-08-04T06:28:15.865Z,66.9
2022-08-04T06:29:25.989Z,65
2022-08-04T06:30:36.097Z,65.4
2022-08-04T06:31:46.219Z,65.1
2022-08-04T06:32:56.337Z,65.8
2022-08-04T06:34:06.461Z,64
2022-08-04T06:35:16.840Z,64.3
2022-08-04T06:36:26.689Z,63.3
2022-08-04T06:37:36.813Z,63
2022-08-04T06:38:46.922Z,64.1
2022-08-04T06:39:56.067Z,63.4
2022-08-04T06:41:06.174Z,64.5
2022-08-04T06:42:16.300Z,64.5
2022-08-04T06:43:26.409Z,64.5
2022-08-04T06:44:36.815Z,64.2
2022-08-04T06:45:46.658Z,63.4
2022-08-04T06:46:57.035Z,64.1
2022-08-04T06:48:06.876Z,61.7
2022-08-04T06:49:16.014Z,63
2022-08-04T06:51:36.514Z,62.9
2022-08-04T06:52:46.376Z,64.2
2022-08-04T06:53:56.486Z,61.6
2022-08-04T06:55:06.607Z,61.6
2022-08-04T06:56:16.986Z,60.9
2022-08-04T06:57:26.835Z,63.1
2022-08-04T06:58:36.960Z,62.5
2022-08-04T06:59:47.086Z,62.4
2022-08-04T07:00:57.000Z,60.7
2022-08-04T07:02:07.316Z,62.5
2022-08-04T07:03:17.433Z,60.7
2022-08-04T07:04:26.570Z,59.4
2022-08-04T07:05:36.672Z,59.4
2022-08-04T07:06:46.799Z,62.2
2022-08-04T07:07:56.924Z,61
2022-08-04T07:09:07.042Z,62.9
2022-08-04T07:10:17.150Z,59.3
2022-08-04T07:11:27.257Z,59
2022-08-04T07:12:37.382Z,58
2022-08-04T07:13:47.508Z,57.3
2022-08-04T07:14:57.624Z,58
2022-08-04T07:16:07.745Z,56.2
2022-08-04T07:17:17.859Z,54
2022-08-04T07:18:27.967Z,54.5
2022-08-04T07:19:37.370Z,58.3
2022-08-04T07:20:47.227Z,57
2022-08-04T07:21:57.329Z,53.7
2022-08-04T07:24:17.571Z,52.6
2022-08-04T07:25:27.684Z,52.4
2022-08-04T07:26:37.801Z,53.1
2022-08-04T07:27:47.924Z,54.2
2022-08-04T07:28:58.042Z,52.3
2022-08-04T07:30:08.162Z,51.8
2022-08-04T07:31:18.544Z,51.3
2022-08-04T07:33:38.506Z,51.1
2022-08-04T07:34:47.657Z,50.3
2022-08-04T07:35:57.757Z,49.7
2022-08-04T07:37:07.880Z,49.8
2022-08-04T07:38:17.991Z,49.3
2022-08-04T07:40:38.237Z,50.4
2022-08-04T07:41:47.369Z,49.2
2022-08-04T07:42:56.514Z,48.8
2022-08-04T07:44:06.624Z,49.5
2022-08-04T07:45:16.745Z,48.7
2022-08-04T07:47:36.978Z,47.8
2022-08-04T07:48:47.097Z,48.2
2022-08-04T07:49:57.222Z,49.1
2022-08-04T07:51:07.328Z,50.7
2022-08-04T07:52:17.450Z,46.9
2022-08-04T07:53:27.575Z,47
2022-08-04T07:54:37.681Z,48.7
2022-08-04T07:55:47.807Z,47.6
2022-08-04T07:56:58.182Z,46.6
2022-08-04T07:58:07.063Z,45.7
2022-08-04T07:59:17.164Z,47.2
2022-08-04T08:00:27.287Z,47.9
2022-08-04T08:01:37.401Z,48.1
2022-08-04T08:02:47.521Z,47.3
2022-08-04T08:03:57.643Z,47.6
2022-08-04T08:05:07.754Z,48.3
2022-08-04T08:06:17.879Z,50.4
2022-08-04T08:08:37.139Z,45.4
2022-08-04T08:09:46.280Z,46.3
2022-08-04T08:10:56.401Z,46.6
2022-08-04T08:12:05.540Z,48.1
2022-08-04T08:13:14.675Z,46.1
2022-08-04T08:14:24.794Z,46.5
2022-08-04T08:15:34.913Z,46
2022-08-04T08:16:45.019Z,45.6
2022-08-04T08:17:55.142Z,46.8
2022-08-04T08:19:05.250Z,44.3
2022-08-04T08:20:15.374Z,47.1
2022-08-04T08:21:25.498Z,46.4
2022-08-04T08:22:35.611Z,45.2
2022-08-04T08:23:45.738Z,47
2022-08-04T08:24:55.845Z,47.6
2022-08-04T08:26:05.971Z,51.1
2022-08-04T08:27:16.081Z,50.1
2022-08-04T08:28:25.213Z,48.9
2022-08-04T08:29:35.332Z,49.5
2022-08-04T08:30:45.456Z,48.2
2022-08-04T08:31:55.567Z,48.3
2022-08-04T08:33:05.678Z,49.6
2022-08-04T08:34:15.803Z,48.7
2022-08-04T08:36:36.038Z,50.2
2022-08-04T08:40:06.391Z,46.5
2022-08-04T08:41:15.531Z,47.2
2022-08-04T08:42:24.661Z,45.1
2022-08-04T08:43:34.790Z,47
2022-08-04T08:44:44.913Z,48.7
2022-08-04T08:45:55.035Z,50.5
2022-08-04T08:47:05.138Z,48.1
2022-08-04T08:48:15.266Z,46.5
2022-08-04T08:49:25.388Z,49
2022-08-04T08:50:35.495Z,45.6
2022-08-04T08:51:45.620Z,44.8
2022-08-04T08:52:55.728Z,43
2022-08-04T08:54:04.880Z,44.9
2022-08-04T08:55:14.270Z,40.9
2022-08-04T08:56:24.122Z,41.8
2022-08-04T08:57:34.236Z,41.4
2022-08-04T08:58:44.358Z,42.7
2022-08-04T08:59:54.476Z,41.8
2022-08-04T09:01:04.595Z,41.7
2022-08-04T09:02:14.715Z,42.6
2022-08-04T09:03:24.841Z,41.3
2022-08-04T09:04:34.000Z,42
2022-08-04T09:05:45.079Z,43.1
2022-08-04T09:06:55.180Z,42
2022-08-04T09:08:05.306Z,43.4
2022-08-04T09:09:15.415Z,40.7
2022-08-04T09:10:24.548Z,39.8
2022-08-04T09:11:34.673Z,40.8
2022-08-04T09:12:44.790Z,40.8
2022-08-04T09:13:54.919Z,41.7
2022-08-04T09:15:05.025Z,40
2022-08-04T09:16:15.139Z,43
2022-08-04T09:17:25.269Z,40.8
2022-08-04T09:18:35.391Z,40.6
2022-08-04T09:19:45.493Z,40.2
2022-08-04T09:20:55.621Z,41.3
2022-08-04T09:22:06.006Z,40.9
2022-08-04T09:23:15.849Z,39.7
2022-08-04T09:24:25.974Z,41.2
2022-08-04T09:25:35.109Z,40.4
2022-08-04T09:26:45.217Z,40.6
2022-08-04T09:27:55.343Z,41.4
2022-08-04T09:29:05.466Z,44.1
2022-08-04T09:30:15.573Z,40.1
2022-08-04T09:32:35.802Z,41.7
2022-08-04T09:33:45.926Z,39.6
2022-08-04T09:34:56.051Z,39.5
2022-08-04T09:36:06.171Z,39.9
2022-08-04T09:37:16.280Z,39.4
2022-08-04T09:38:26.405Z,39
2022-08-04T09:39:36.519Z,39.4
2022-08-04T09:40:45.656Z,39.5
2022-08-04T09:41:56.031Z,40.8
2022-08-04T09:43:05.892Z,39.3
2022-08-04T09:44:16.262Z,38.6
2022-08-04T09:45:26.113Z,37.3
2022-08-04T09:46:36.240Z,36.8
2022-08-04T09:47:46.362Z,38.4
2022-08-04T09:48:56.481Z,36.4
2022-08-04T09:50:06.603Z,40.1
2022-08-04T09:51:16.707Z,37.1
2022-08-04T09:52:26.828Z,39.3
2022-08-04T09:53:36.946Z,36.8
2022-08-04T09:54:47.342Z,37.3
2022-08-04T09:55:56.463Z,36.5
2022-08-04T09:57:06.582Z,36.7
2022-08-04T09:58:16.426Z,37.2
2022-08-04T09:59:26.550Z,37.5
2022-08-04T10:00:36.670Z,38.1
2022-08-04T10:01:47.046Z,36.4
2022-08-04T10:02:57.167Z,36.1
2022-08-04T10:04:07.034Z,36.9
2022-08-04T10:05:17.402Z,36.6
2022-08-04T10:06:27.251Z,38.3
2022-08-04T10:07:37.375Z,36.6
2022-08-04T10:08:47.486Z,34.9
2022-08-04T10:09:57.610Z,36
2022-08-04T10:11:06.744Z,36.9
2022-08-04T10:12:17.121Z,37
2022-08-04T10:13:26.975Z,35.6
2022-08-04T10:14:37.094Z,36.8
2022-08-04T10:15:47.214Z,37.3
2022-08-04T10:16:57.338Z,36.1
2022-08-04T10:18:07.457Z,37.6
2022-08-04T10:19:17.577Z,37.6
2022-08-04T10:20:27.680Z,37.6
2022-08-04T10:21:37.810Z,40.1
2022-08-04T10:22:47.926Z,36.2
2022-08-04T10:23:58.045Z,37.7
2022-08-04T10:25:08.152Z,36.9
2022-08-04T10:26:17.289Z,37.3
2022-08-04T10:27:27.412Z,34.4
2022-08-04T10:28:37.524Z,35.3
2022-08-04T10:29:47.652Z,35.9
2022-08-04T10:30:58.026Z,38.5
2022-08-04T10:32:07.880Z,35.9
2022-08-04T10:33:18.005Z,38.1
2022-08-04T10:35:38.233Z,34.9
2022-08-04T10:36:48.353Z,35.5
2022-08-04T10:37:58.477Z,35.7
2022-08-04T10:39:08.599Z,35
2022-08-04T10:40:18.711Z,34.5
2022-08-04T10:41:27.849Z,35
2022-08-04T10:42:37.951Z,34.6
2022-08-04T10:43:47.088Z,37.1
2022-08-04T10:44:57.209Z,33.8
2022-08-04T10:46:07.326Z,34.9
2022-08-04T10:47:17.449Z,34.5
2022-08-04T10:48:27.575Z,33.4
2022-08-04T10:49:37.698Z,34.2
2022-08-04T10:50:47.811Z,34.2
2022-08-04T10:51:58.184Z,36.4
2022-08-04T10:53:08.036Z,35.7
2022-08-04T10:54:18.156Z,34
2022-08-04T10:56:38.388Z,35.5
2022-08-04T10:57:48.518Z,35.7
2022-08-04T10:58:57.653Z,34.7
2022-08-04T11:00:07.772Z,35.2
2022-08-04T11:01:17.875Z,35.2
2022-08-04T11:02:27.998Z,35.8
2022-08-04T11:03:38.120Z,32.7
2022-08-04T11:05:58.354Z,33.8
2022-08-04T11:07:08.480Z,37.1
2022-08-04T11:08:18.579Z,35.2
2022-08-04T11:10:38.822Z,35.2
2022-08-04T11:11:47.970Z,35.9
2022-08-04T11:12:57.103Z,34.6
2022-08-04T11:14:07.213Z,34.7
2022-08-04T11:15:17.338Z,35.1
2022-08-04T11:16:27.455Z,33.9
2022-08-04T11:17:37.575Z,33.3
2022-08-04T11:18:47.694Z,34.9
2022-08-04T11:19:57.819Z,35.5
2022-08-04T11:21:07.937Z,35.8
2022-08-04T11:22:18.048Z,36.1
2022-08-04T11:23:28.164Z,36.2
2022-08-04T11:24:37.299Z,38.2
2022-08-04T11:25:46.452Z,36.7
2022-08-04T11:26:56.560Z,39
2022-08-04T11:28:06.673Z,36.7
2022-08-04T11:29:16.798Z,35.4
2022-08-04T11:31:37.024Z,34.5
2022-08-04T11:32:47.142Z,35.8
2022-08-04T11:33:57.268Z,34.3
2022-08-04T11:35:07.393Z,33.8
2022-08-04T11:36:17.499Z,35.3
2022-08-04T11:38:37.000Z,33.3
2022-08-04T11:39:46.880Z,34.5
2022-08-04T11:40:56.013Z,34
2022-08-04T11:42:06.141Z,35.3
2022-08-04T11:43:16.249Z,35.5
2022-08-04T11:44:26.380Z,33.9
2022-08-04T11:46:46.608Z,33
2022-08-04T11:47:56.728Z,34.3
2022-08-04T11:49:07.104Z,32.6
2022-08-04T11:50:16.953Z,32.2
2022-08-04T11:51:27.082Z,33.7
2022-08-04T11:52:37.191Z,33
2022-08-04T11:53:47.319Z,32.1
2022-08-04T11:54:57.423Z,33.1
2022-08-04T11:56:06.571Z,34.6
2022-08-04T11:57:16.681Z,32.5
2022-08-04T11:58:26.809Z,34.2
2022-08-04T11:59:36.914Z,31.9
2022-08-04T12:00:47.041Z,32.5
2022-08-04T12:01:57.152Z,33
2022-08-04T12:03:07.281Z,33
2022-08-04T12:04:17.385Z,33.7
2022-08-04T12:05:26.543Z,34.8
2022-08-04T12:06:35.678Z,34.2
2022-08-04T12:07:45.782Z,34.9
2022-08-04T12:08:56.163Z,33.9
2022-08-04T12:10:06.017Z,32.9
2022-08-04T12:11:16.139Z,35.5
2022-08-04T12:12:26.255Z,36.4
2022-08-04T12:13:36.368Z,34.4
2022-08-04T12:14:46.487Z,32.1
2022-08-04T12:15:56.615Z,34.9
2022-08-04T12:17:07.088Z,34.8
2022-08-04T12:18:16.853Z,34.1
2022-08-04T12:19:26.959Z,33.3
2022-08-04T12:20:37.089Z,34.5
2022-08-04T12:21:46.228Z,35
2022-08-04T12:22:56.331Z,33.4
2022-08-04T12:24:06.451Z,31.7
2022-08-04T12:25:16.835Z,29.9
2022-08-04T12:26:26.694Z,30.1
2022-08-04T12:27:36.818Z,31.1
2022-08-04T12:28:46.931Z,30.4
2022-08-04T12:29:57.307Z,32.9
2022-08-04T12:31:07.170Z,32.3
2022-08-04T12:32:17.273Z,31.1
2022-08-04T12:33:27.405Z,30.5
2022-08-04T12:34:37.527Z,30.6
2022-08-04T12:35:47.625Z,29.8
2022-08-04T12:36:56.765Z,31.3
2022-08-04T12:38:06.891Z,30.4
2022-08-04T12:39:17.269Z,30.2
2022-08-04T12:40:27.124Z,30.7
2022-08-04T12:41:37.248Z,29.8
2022-08-04T12:42:47.356Z,30.6
2022-08-04T12:43:57.470Z,29.1
2022-08-04T12:45:07.590Z,28.8
2022-08-04T12:46:17.712Z,29.8
2022-08-04T12:47:28.101Z,29.2
2022-08-04T12:48:37.950Z,29.2
2022-08-04T12:49:48.066Z,29.8
2022-08-04T12:50:58.192Z,29.8
2022-08-04T12:52:07.321Z,29.1
2022-08-04T12:53:17.440Z,31.3
2022-08-04T12:55:37.678Z,28.7
2022-08-04T12:56:47.801Z,31
2022-08-04T12:57:57.908Z,31
2022-08-04T12:59:08.025Z,29.9
2022-08-04T13:00:18.142Z,29.9
2022-08-04T13:01:28.267Z,28.8
2022-08-04T13:02:38.384Z,30.4
2022-08-04T13:03:48.505Z,30.6
2022-08-04T13:04:58.610Z,29.9
2022-08-04T13:06:08.735Z,31.3
2022-08-04T13:07:17.869Z,31.3
2022-08-04T13:08:27.995Z,31.3
2022-08-04T13:09:38.114Z,30.1
2022-08-04T13:10:48.224Z,29.9
2022-08-04T13:11:58.600Z,28.7
2022-08-04T13:13:08.461Z,30
2022-08-04T13:14:18.589Z,29.6
2022-08-04T13:15:28.706Z,28.5
2022-08-04T13:16:38.816Z,28.7
2022-08-04T13:17:48.942Z,28.4
2022-08-04T13:18:59.057Z,28.3
2022-08-04T13:20:09.168Z,29.1
2022-08-04T13:21:19.291Z,28.5
2022-08-04T13:22:28.425Z,27.8
2022-08-04T13:23:38.551Z,28
2022-08-04T13:24:48.669Z,27.2
2022-08-04T13:25:58.770Z,26.9
2022-08-04T13:27:08.900Z,29.1
2022-08-04T13:28:19.021Z,28.2
2022-08-04T13:29:29.137Z,29.1
2022-08-04T13:30:39.246Z,28.1
2022-08-04T13:31:49.000Z,29.7
2022-08-04T13:32:59.478Z,28.5
2022-08-04T13:34:09.603Z,28.7
2022-08-04T13:35:19.728Z,28.6
2022-08-04T13:36:29.837Z,28.2
2022-08-04T13:37:38.968Z,29.6
2022-08-04T13:38:49.089Z,28.4
2022-08-04T13:39:59.205Z,27.9
2022-08-04T13:41:09.327Z,29.1
2022-08-04T13:42:19.453Z,29.3
2022-08-04T13:43:29.575Z,28.7
2022-08-04T13:44:39.683Z,28.9
2022-08-04T13:45:49.801Z,26.4
2022-08-04T13:46:59.928Z,27.5
2022-08-04T13:49:20.090Z,26.6
2022-08-04T13:50:30.206Z,27.7
2022-08-04T13:51:40.400Z,25.7
2022-08-04T13:52:49.518Z,25.4
2022-08-04T13:53:59.640Z,26.5
2022-08-04T13:55:09.762Z,27.5
2022-08-04T13:56:19.878Z,25.9
2022-08-04T13:58:40.109Z,25.6
2022-08-04T13:59:50.172Z,26.6
2022-08-04T14:01:00.345Z,27.7
2022-08-04T14:02:10.467Z,27.1
2022-08-04T14:03:20.600Z,28.4
2022-08-04T14:05:40.824Z,26.6
2022-08-04T14:06:49.978Z,27.2
2022-08-04T14:07:59.112Z,26.5
2022-08-04T14:09:09.219Z,26.3
2022-08-04T14:10:19.343Z,30.8
2022-08-04T14:11:29.469Z,27.2
2022-08-04T14:12:39.842Z,26.9
2022-08-04T14:13:49.701Z,28.6
2022-08-04T14:14:59.825Z,28.3
2022-08-04T14:16:09.932Z,28.8
2022-08-04T14:17:20.064Z,28.4
2022-08-04T14:18:30.182Z,28.8
2022-08-04T14:19:39.319Z,27.9
2022-08-04T14:20:48.453Z,30.1
2022-08-04T14:21:58.509Z,26.5
2022-08-04T14:23:08.688Z,24.9
2022-08-04T14:24:18.816Z,25.4
2022-08-04T14:25:28.921Z,26.2
2022-08-04T14:26:39.047Z,27
2022-08-04T14:27:49.104Z,27.6
2022-08-04T14:28:59.271Z,27.3
2022-08-04T14:30:09.393Z,28.1
2022-08-04T14:31:19.520Z,30.9
2022-08-04T14:32:29.644Z,27
2022-08-04T14:33:39.693Z,27.1
2022-08-04T14:34:49.804Z,24.4
2022-08-04T14:35:59.007Z,22.7
2022-08-04T14:37:09.070Z,24.5
2022-08-04T14:38:18.262Z,24.4
2022-08-04T14:39:28.382Z,25.8
2022-08-04T14:40:38.439Z,23.5
2022-08-04T14:41:48.620Z,24.2
2022-08-04T14:42:58.731Z,23.5
2022-08-04T14:44:08.795Z,23
2022-08-04T14:45:18.906Z,23.9
2022-08-04T14:46:29.023Z,23.9
2022-08-04T14:47:39.206Z,24.9
2022-08-04T14:48:49.331Z,23.4
2022-08-04T14:49:59.382Z,23.7
2022-08-04T14:51:09.559Z,21.8
2022-08-04T14:52:19.629Z,21.4
2022-08-04T14:54:38.938Z,20.3
2022-08-04T14:55:49.002Z,19.3
2022-08-04T14:56:59.167Z,20
2022-08-04T14:58:09.293Z,20.4
2022-08-04T14:59:19.415Z,19.7
2022-08-04T15:00:29.539Z,19.6
2022-08-04T15:01:39.654Z,20.4
2022-08-04T15:02:49.758Z,20.4
2022-08-04T15:03:59.885Z,21.3
2022-08-04T15:05:09.929Z,22.4
2022-08-04T15:06:20.117Z,24.8
2022-08-04T15:07:30.247Z,24.3
2022-08-04T15:08:39.379Z,24
2022-08-04T15:09:49.500Z,23.3
2022-08-04T15:10:59.544Z,21
2022-08-04T15:12:09.667Z,21.5
2022-08-04T15:13:19.845Z,20.4
2022-08-04T15:14:29.902Z,20.2
2022-08-04T15:15:40.080Z,20.2
2022-08-04T15:16:50.132Z,20.5
2022-08-04T15:18:00.312Z,20.9
2022-08-04T15:19:10.378Z,19.3
2022-08-04T15:20:20.492Z,20.1
2022-08-04T15:21:30.606Z,20
2022-08-04T15:22:40.792Z,19.6
2022-08-04T15:23:49.927Z,21.2
2022-08-04T15:25:00.053Z,20.2
2022-08-04T15:26:10.171Z,20.7
2022-08-04T15:27:20.273Z,19.4
2022-08-04T15:28:30.392Z,20
2022-08-04T15:29:40.461Z,20.3
2022-08-04T15:30:50.577Z,20.5
2022-08-04T15:32:00.747Z,20.7
2022-08-04T15:33:10.809Z,19.9
2022-08-04T15:34:20.923Z,20.5
2022-08-04T15:35:31.108Z,20.4
2022-08-04T15:36:41.236Z,19.6
2022-08-04T15:37:51.339Z,20.4
2022-08-04T15:39:00.486Z,19.4
2022-08-04T15:40:10.609Z,21.2
2022-08-04T15:41:20.710Z,18.5
2022-08-04T15:42:30.772Z,18.8
2022-08-04T15:43:40.887Z,18.9
2022-08-04T15:44:51.000Z,19.5
2022-08-04T15:46:01.189Z,20.1
2022-08-04T15:47:11.250Z,19.8
2022-08-04T15:48:21.365Z,19.9
2022-08-04T15:49:31.478Z,18.6
2022-08-04T15:50:41.665Z,19.2
2022-08-04T15:51:51.789Z,19.6
2022-08-04T15:53:01.909Z,20
2022-08-04T15:54:10.966Z,19.6
2022-08-04T15:55:21.155Z,19.2
2022-08-04T15:56:31.276Z,20.1
2022-08-04T15:57:41.400Z,20.5
2022-08-04T15:58:51.454Z,19.4
2022-08-04T16:00:01.892Z,19.8
2022-08-04T16:01:11.744Z,20.7
2022-08-04T16:02:21.801Z,21.2
2022-08-04T16:03:31.917Z,20.8
2022-08-04T16:04:42.365Z,21.8
2022-08-04T16:05:52.163Z,22.6
2022-08-04T16:07:02.345Z,23
2022-08-04T16:08:12.445Z,24
2022-08-04T16:09:21.583Z,25.9
2022-08-04T16:10:31.709Z,26.7
2022-08-04T16:11:41.829Z,27.5
2022-08-04T16:12:51.936Z,28
2022-08-04T16:14:02.326Z,27.5
2022-08-04T16:15:12.175Z,27.8
2022-08-04T16:16:22.302Z,28.1
2022-08-04T16:18:42.479Z,28.1
2022-08-04T16:19:52.650Z,28.4
2022-08-04T16:21:02.704Z,28
2022-08-04T16:22:12.882Z,29.1
2022-08-04T16:23:23.012Z,28.8
2022-08-04T16:24:32.134Z,28.9
2022-08-04T16:25:42.258Z,29.1
2022-08-04T16:28:02.506Z,29.7